createdAt,value
2018-09-27T00:51:07.772Z,5.51
2018-09-27T00:52:07.812Z,5.45
2018-09-27T00:54:46.505Z,5.37
2018-09-27T01:16:27.168Z,5.20
2018-09-27T01:17:27.071Z,5.14
2018-09-27T01:18:26.999Z,5.24
2018-09-27T01:19:27.127Z,5.24
2018-09-27T01:20:26.924Z,5.24
2018-09-27T01:29:43.676Z,5.17
2018-09-27T01:30:43.374Z,5.24
2018-09-27T01:31:43.615Z,5.14
2018-09-27T01:32:43.410Z,5.11
2018-09-27T01:39:32.985Z,5.20
2018-09-27T01:46:36.530Z,5.12
2018-09-27T01:50:17.997Z,5.06
2018-09-27T02:09:36.147Z,4.94
2018-09-27T02:21:48.579Z,4.94
2018-09-27T02:33:04.935Z,4.88
2018-09-27T02:41:05.505Z,4.90
2018-09-27T02:51:52.360Z,4.65
2018-09-27T02:52:52.469Z,4.62
2018-09-27T02:55:15.391Z,4.65
2018-09-27T03:14:48.378Z,4.43
2018-09-27T03:54:46.002Z,4.42
2018-09-27T03:55:45.919Z,4.47
2018-09-27T03:56:46.018Z,4.46
2018-09-27T03:57:45.982Z,4.42
2018-09-27T04:00:27.673Z,4.38
2018-09-27T04:01:27.656Z,4.32
2018-09-27T04:02:27.642Z,4.36
2018-09-27T04:03:27.714Z,4.44
2018-09-27T04:04:27.619Z,4.50
2018-09-27T04:05:27.608Z,4.47
2018-09-27T04:06:27.607Z,4.44
2018-09-27T04:07:27.671Z,4.47
2018-09-27T04:08:27.998Z,4.54
2018-09-27T04:09:27.566Z,4.57
2018-09-27T04:10:27.590Z,4.61
2018-09-27T04:11:27.540Z,4.64
2018-09-27T04:12:27.561Z,4.61
2018-09-27T04:13:27.528Z,4.59
2018-09-27T04:14:27.612Z,4.69
2018-09-27T04:15:27.542Z,4.67
2018-09-27T04:16:27.483Z,4.64
2018-09-27T04:17:27.471Z,4.62
2018-09-27T04:18:27.469Z,4.67
2018-09-27T04:19:27.460Z,4.65
2018-09-27T04:20:27.438Z,4.69
2018-09-27T04:21:27.430Z,4.69
2018-09-27T04:22:27.515Z,4.65
2018-09-27T04:23:27.403Z,4.65
2018-09-27T04:24:27.403Z,4.67
2018-09-27T04:25:27.380Z,4.64
2018-09-27T04:26:27.369Z,4.62
2018-09-27T04:27:27.358Z,4.59
2018-09-27T04:28:27.371Z,4.69
2018-09-27T04:29:27.346Z,4.71
2018-09-27T04:30:27.349Z,4.62
2018-09-27T04:31:27.312Z,4.71
2018-09-27T04:32:27.300Z,4.68
2018-09-27T04:33:27.359Z,4.69
2018-09-27T04:34:27.302Z,4.68
2018-09-27T04:35:27.395Z,4.71
2018-09-27T04:36:27.366Z,4.74
2018-09-27T04:37:27.247Z,4.77
2018-09-27T04:38:27.232Z,4.67
2018-09-27T04:39:27.234Z,4.71
2018-09-27T04:40:27.217Z,4.68
2018-09-27T04:41:27.228Z,4.68
2018-09-27T04:42:27.187Z,4.74
2018-09-27T04:43:27.235Z,4.71
2018-09-27T04:44:27.180Z,4.68
2018-09-27T04:45:27.155Z,4.61
2018-09-27T04:46:27.141Z,4.68
2018-09-27T04:47:27.134Z,4.72
2018-09-27T04:48:27.119Z,4.68
2018-09-27T04:49:27.229Z,4.69
2018-09-27T04:50:27.096Z,4.64
2018-09-27T04:51:27.090Z,4.67
2018-09-27T04:52:27.074Z,4.87
2018-09-27T04:53:27.061Z,4.71
2018-09-27T04:54:27.138Z,4.64
2018-09-27T04:55:27.039Z,4.74
2018-09-27T04:56:27.042Z,4.69
2018-09-27T04:57:27.020Z,4.67
2018-09-27T04:58:27.006Z,4.72
2018-09-27T04:59:27.021Z,4.79
2018-09-27T05:00:26.981Z,4.80
2018-09-27T05:01:26.971Z,4.87
2018-09-27T05:02:27.002Z,4.86
2018-09-27T05:03:26.948Z,4.90
2018-09-27T05:04:26.952Z,4.91
2018-09-27T05:05:26.930Z,4.94
2018-09-27T05:06:26.936Z,4.94
2018-09-27T05:07:26.906Z,4.97
2018-09-27T05:08:26.893Z,4.90
2018-09-27T05:09:26.950Z,5.01
2018-09-27T05:10:26.863Z,4.94
2018-09-27T05:11:26.857Z,5.01
2018-09-27T05:12:26.849Z,4.99
2018-09-27T05:13:26.835Z,5.01
2018-09-27T05:14:26.839Z,4.99
2018-09-27T05:15:26.818Z,4.99
2018-09-27T05:16:26.844Z,5.01
2018-09-27T05:17:26.791Z,4.99
2018-09-27T05:18:26.783Z,5.04
2018-09-27T05:19:26.780Z,5.02
2018-09-27T05:20:26.770Z,5.04
2018-09-27T05:21:26.778Z,5.05
2018-09-27T05:22:26.733Z,5.06
2018-09-27T05:23:26.722Z,5.06
2018-09-27T05:24:26.903Z,5.04
2018-09-27T05:25:26.706Z,5.08
2018-09-27T05:26:26.686Z,5.20
2018-09-27T05:27:26.688Z,5.22
2018-09-27T05:28:26.791Z,5.15
2018-09-27T05:29:26.666Z,5.02
2018-09-27T05:30:26.650Z,5.12
2018-09-27T05:31:26.630Z,5.11
2018-09-27T05:32:26.619Z,5.12
2018-09-27T05:33:26.663Z,5.12
2018-09-27T05:34:26.747Z,5.20
2018-09-27T05:35:26.588Z,5.29
2018-09-27T05:36:26.573Z,5.26
2018-09-27T05:37:26.562Z,5.26
2018-09-27T05:38:26.550Z,5.23
2018-09-27T05:39:26.595Z,5.27
2018-09-27T05:40:26.719Z,5.35
2018-09-27T05:41:26.517Z,5.33
2018-09-27T05:42:26.505Z,5.37
2018-09-27T05:43:26.494Z,5.40
2018-09-27T05:44:26.547Z,5.33
2018-09-27T05:45:26.495Z,5.42
2018-09-27T05:46:26.462Z,5.42
2018-09-27T05:47:26.459Z,5.51
2018-09-27T05:48:26.517Z,5.49
2018-09-27T05:49:26.438Z,5.49
2018-09-27T05:50:26.533Z,5.49
2018-09-27T05:51:26.531Z,5.51
2018-09-27T05:52:26.391Z,5.42
2018-09-27T05:53:26.443Z,5.51
2018-09-27T05:54:26.384Z,5.51
2018-09-27T05:55:26.358Z,5.55
2018-09-27T05:56:26.415Z,5.58
2018-09-27T05:57:26.367Z,5.65
2018-09-27T05:58:26.325Z,5.65
2018-09-27T05:59:26.331Z,5.67
2018-09-27T06:00:26.382Z,5.67
2018-09-27T06:01:26.290Z,5.77
2018-09-27T06:02:26.294Z,5.77
2018-09-27T06:03:26.368Z,5.75
2018-09-27T06:04:26.267Z,5.75
2018-09-27T06:05:26.360Z,5.77
2018-09-27T06:06:26.232Z,5.81
2018-09-27T06:07:26.292Z,5.83
2018-09-27T06:08:26.210Z,5.84
2018-09-27T06:09:26.216Z,5.84
2018-09-27T06:10:26.194Z,5.81
2018-09-27T06:11:26.302Z,5.83
2018-09-27T06:12:26.243Z,5.81
2018-09-27T06:13:26.156Z,5.83
2018-09-27T06:14:26.168Z,5.87
2018-09-27T06:15:26.178Z,5.78
2018-09-27T06:16:26.119Z,5.81
2018-09-27T06:17:26.108Z,5.85
2018-09-27T06:18:26.099Z,5.78
2018-09-27T06:19:26.131Z,5.88
2018-09-27T06:20:26.188Z,5.81
2018-09-27T06:21:26.103Z,5.84
2018-09-27T06:22:26.055Z,5.83
2018-09-27T06:23:26.039Z,5.78
2018-09-27T06:24:26.167Z,5.83
2018-09-27T06:25:26.046Z,5.88
2018-09-27T06:26:26.005Z,5.80
2018-09-27T06:27:26.031Z,5.83
2018-09-27T06:28:25.987Z,5.77
2018-09-27T06:29:25.971Z,5.83
2018-09-27T06:30:26.024Z,5.85
2018-09-27T06:31:25.950Z,5.80
2018-09-27T06:32:25.989Z,5.84
2018-09-27T06:33:26.027Z,5.83
2018-09-27T06:34:25.984Z,5.87
2018-09-27T06:35:25.920Z,5.81
2018-09-27T06:36:25.897Z,5.78
2018-09-27T06:37:25.928Z,5.85
2018-09-27T06:38:25.906Z,5.87
2018-09-27T06:39:25.862Z,5.84
2018-09-27T06:40:25.870Z,5.88
2018-09-27T06:41:25.947Z,5.81
2018-09-27T06:42:25.830Z,5.88
2018-09-27T06:43:25.872Z,5.78
2018-09-27T06:44:25.807Z,5.80
2018-09-27T06:45:26.017Z,5.85
2018-09-27T06:46:25.778Z,5.92
2018-09-27T06:47:25.771Z,5.93
2018-09-27T06:48:25.945Z,5.88
2018-09-27T06:49:26.423Z,5.96
2018-09-27T06:50:26.773Z,5.93
2018-09-27T06:51:25.729Z,5.95
2018-09-27T06:52:25.741Z,6.01
2018-09-27T06:53:25.701Z,6.06
2018-09-27T06:54:25.707Z,6.06
2018-09-27T06:55:25.887Z,6.02
2018-09-27T06:56:25.677Z,6.03
2018-09-27T06:57:25.665Z,6.05
2018-09-27T06:58:25.660Z,6.05
2018-09-27T06:59:25.714Z,6.14
2018-09-27T07:00:25.635Z,6.06
2018-09-27T07:01:25.619Z,6.27
2018-09-27T07:02:25.673Z,6.32
2018-09-27T07:03:25.630Z,6.38
2018-09-27T07:04:25.577Z,6.45
2018-09-27T07:05:25.593Z,6.63
2018-09-27T07:06:25.555Z,6.65
2018-09-27T07:07:25.596Z,6.73
2018-09-27T07:08:25.548Z,6.68
2018-09-27T07:09:25.506Z,6.82
2018-09-27T07:10:25.521Z,6.99
2018-09-27T07:11:25.505Z,7.09
2018-09-27T07:12:25.805Z,7.19
2018-09-27T07:13:25.498Z,7.27
2018-09-27T07:14:25.609Z,7.42
2018-09-27T07:15:25.494Z,7.54
2018-09-27T07:16:25.563Z,7.74
2018-09-27T07:17:25.428Z,7.84
2018-09-27T07:18:25.510Z,8.00
2018-09-27T07:19:25.408Z,8.09
2018-09-27T07:20:25.581Z,8.28
2018-09-27T07:21:25.383Z,8.61
2018-09-27T07:22:25.372Z,8.83
2018-09-27T07:23:25.364Z,9.08
2018-09-27T07:24:25.351Z,9.34
2018-09-27T07:25:25.354Z,9.68
2018-09-27T07:26:25.653Z,9.92
2018-09-27T07:27:25.315Z,10.04
2018-09-27T07:28:25.305Z,10.22
2018-09-27T07:29:25.294Z,10.34
2018-09-27T07:30:25.294Z,10.60
2018-09-27T07:31:25.271Z,10.68
2018-09-27T07:32:25.301Z,10.78
2018-09-27T07:33:25.248Z,10.87
2018-09-27T07:34:25.242Z,11.06
2018-09-27T07:35:25.239Z,11.27
2018-09-27T07:36:25.234Z,11.41
2018-09-27T07:37:25.703Z,11.56
2018-09-27T07:38:25.211Z,11.63
2018-09-27T07:39:25.183Z,11.78
2018-09-27T07:40:25.182Z,11.85
2018-09-27T07:41:25.158Z,12.01
2018-09-27T07:42:25.145Z,12.08
2018-09-27T07:43:25.143Z,12.30
2018-09-27T07:44:25.186Z,12.40
2018-09-27T07:45:25.125Z,12.48
2018-09-27T07:46:25.102Z,12.92
2018-09-27T07:47:25.091Z,12.94
2018-09-27T07:48:25.130Z,13.24
2018-09-27T07:49:25.068Z,13.39
2018-09-27T07:50:25.106Z,13.46
2018-09-27T07:51:25.042Z,13.36
2018-09-27T07:52:25.035Z,13.24
2018-09-27T07:53:25.125Z,13.13
2018-09-27T07:54:25.621Z,13.12
2018-09-27T07:55:25.008Z,12.94
2018-09-27T07:56:24.988Z,12.70
2018-09-27T07:57:24.973Z,12.62
2018-09-27T07:58:25.005Z,12.62
2018-09-27T07:59:24.955Z,12.77
2018-09-27T08:00:25.788Z,12.71
2018-09-27T08:01:24.928Z,12.74
2018-09-27T08:02:25.792Z,12.70
2018-09-27T08:03:24.906Z,12.73
2018-09-27T08:04:24.894Z,12.92
2018-09-27T08:05:25.701Z,13.13
2018-09-27T08:06:24.871Z,13.48
2018-09-27T08:07:24.896Z,13.69
2018-09-27T08:08:24.865Z,13.86
2018-09-27T08:09:24.869Z,13.96
2018-09-27T08:10:24.842Z,14.23
2018-09-27T08:11:24.882Z,14.26
2018-09-27T08:12:24.808Z,14.42
2018-09-27T08:13:24.802Z,14.59
2018-09-27T08:14:24.862Z,14.78
2018-09-27T08:15:24.822Z,15.07
2018-09-27T08:16:25.874Z,15.31
2018-09-27T08:17:24.818Z,15.53
2018-09-27T08:18:24.736Z,15.67
2018-09-27T08:19:25.087Z,16.04
2018-09-27T08:20:26.524Z,16.40
2018-09-27T08:21:24.793Z,16.80
2018-09-27T08:22:24.705Z,17.02
2018-09-27T08:23:25.245Z,17.32
2018-09-27T08:24:24.957Z,17.68
2018-09-27T08:25:24.682Z,17.86
2018-09-27T08:26:24.705Z,18.04
2018-09-27T08:27:24.634Z,18.11
2018-09-27T08:28:24.998Z,18.11
2018-09-27T08:29:24.781Z,18.28
2018-09-27T08:30:24.608Z,18.19
2018-09-27T08:31:24.606Z,18.46
2018-09-27T08:32:24.600Z,18.57
2018-09-27T08:33:24.568Z,18.59
2018-09-27T08:34:24.848Z,18.78
2018-09-27T08:35:24.544Z,18.94
2018-09-27T08:36:24.541Z,19.15
2018-09-27T08:37:24.524Z,19.24
2018-09-27T08:38:24.594Z,19.24
2018-09-27T08:39:24.498Z,19.39
2018-09-27T08:40:24.487Z,19.45
2018-09-27T08:41:24.490Z,19.42
2018-09-27T08:42:24.469Z,19.32
2018-09-27T08:43:24.454Z,19.21
2018-09-27T08:44:25.491Z,19.25
2018-09-27T08:45:24.757Z,19.17
2018-09-27T08:46:24.432Z,19.39
2018-09-27T08:47:24.409Z,19.43
2018-09-27T08:48:24.398Z,19.52
2018-09-27T08:49:24.382Z,19.45
2018-09-27T08:50:24.375Z,19.39
2018-09-27T08:51:24.425Z,19.20
2018-09-27T08:52:24.353Z,19.06
2018-09-27T08:53:24.344Z,18.83
2018-09-27T08:54:24.329Z,18.72
2018-09-27T08:55:24.325Z,18.76
2018-09-27T08:56:24.334Z,18.66
2018-09-27T08:57:24.298Z,18.66
2018-09-27T08:58:24.286Z,18.69
2018-09-27T08:59:24.278Z,19.05
2018-09-27T09:00:24.265Z,19.17
2018-09-27T09:01:24.273Z,19.25
2018-09-27T09:02:24.240Z,19.52
2018-09-27T09:03:24.301Z,19.60
2018-09-27T09:04:24.437Z,19.97
2018-09-27T09:05:24.822Z,20.07
2018-09-27T09:06:24.206Z,19.97
2018-09-27T09:07:24.194Z,19.94
2018-09-27T09:08:24.524Z,19.85
2018-09-27T09:09:24.303Z,19.80
2018-09-27T09:10:24.149Z,19.83
2018-09-27T09:11:24.151Z,19.78
2018-09-27T09:12:24.114Z,19.90
2018-09-27T09:13:24.170Z,19.76
2018-09-27T09:14:24.107Z,19.49
2018-09-27T09:15:24.146Z,19.28
2018-09-27T09:16:24.093Z,19.10
2018-09-27T09:17:24.075Z,18.96
2018-09-27T09:18:24.064Z,18.89
2018-09-27T09:19:24.070Z,18.84
2018-09-27T09:20:24.481Z,18.78
2018-09-27T09:21:24.039Z,18.76
2018-09-27T09:22:24.029Z,18.75
2018-09-27T09:23:24.005Z,18.75
2018-09-27T09:24:24.051Z,18.74
2018-09-27T09:25:23.983Z,18.65
2018-09-27T09:26:25.171Z,18.54
2018-09-27T09:27:23.998Z,18.41
2018-09-27T09:28:23.962Z,18.32
2018-09-27T09:29:23.949Z,18.21
2018-09-27T09:30:23.928Z,18.14
2018-09-27T09:31:23.923Z,18.01
2018-09-27T09:32:23.900Z,17.94
2018-09-27T09:33:23.948Z,17.91
2018-09-27T09:34:23.892Z,17.86
2018-09-27T09:35:23.915Z,17.63
2018-09-27T09:36:23.913Z,17.68
2018-09-27T09:37:24.248Z,17.65
2018-09-27T09:38:23.844Z,17.65
2018-09-27T09:39:23.829Z,17.65
2018-09-27T09:40:23.819Z,17.66
2018-09-27T09:41:23.815Z,17.60
2018-09-27T09:42:23.795Z,17.63
2018-09-27T09:43:24.079Z,17.63
2018-09-27T09:44:23.774Z,17.68
2018-09-27T09:45:23.768Z,17.70
2018-09-27T09:46:24.027Z,17.63
2018-09-27T09:47:23.725Z,17.60
2018-09-27T09:48:23.724Z,17.63
2018-09-27T09:49:23.831Z,17.57
2018-09-27T09:50:23.888Z,17.55
2018-09-27T09:51:23.703Z,17.47
2018-09-27T09:52:23.676Z,17.54
2018-09-27T09:53:23.672Z,17.54
2018-09-27T09:54:23.656Z,17.53
2018-09-27T09:55:23.646Z,17.68
2018-09-27T09:56:23.642Z,17.83
2018-09-27T09:57:23.625Z,17.80
2018-09-27T09:58:23.611Z,17.81
2018-09-27T09:59:23.600Z,18.04
2018-09-27T10:00:23.589Z,18.07
2018-09-27T10:01:23.586Z,18.04
2018-09-27T10:02:23.610Z,18.10
2018-09-27T10:03:23.552Z,18.11
2018-09-27T10:04:23.540Z,18.17
2018-09-27T10:05:23.530Z,18.25
2018-09-27T10:06:23.537Z,18.29
2018-09-27T10:07:23.509Z,18.28
2018-09-27T10:08:23.495Z,18.32
2018-09-27T10:09:23.485Z,18.28
2018-09-27T10:10:23.472Z,18.17
2018-09-27T10:11:23.472Z,18.09
2018-09-27T10:12:23.445Z,18.16
2018-09-27T10:13:23.440Z,18.21
2018-09-27T10:14:23.423Z,18.19
2018-09-27T10:15:23.411Z,18.26
2018-09-27T10:16:23.410Z,18.29
2018-09-27T10:17:23.393Z,18.38
2018-09-27T10:18:23.379Z,18.38
2018-09-27T10:19:23.366Z,18.35
2018-09-27T10:20:23.356Z,18.34
2018-09-27T10:21:23.670Z,18.39
2018-09-27T10:22:23.333Z,18.42
2018-09-27T10:23:23.323Z,18.32
2018-09-27T10:24:23.313Z,18.35
2018-09-27T10:25:23.295Z,18.44
2018-09-27T10:26:23.289Z,18.42
2018-09-27T10:27:23.284Z,18.41
2018-09-27T10:28:23.261Z,18.49
2018-09-27T10:29:23.250Z,18.39
2018-09-27T10:30:23.239Z,18.46
2018-09-27T10:31:23.264Z,18.51
2018-09-27T10:32:23.523Z,18.60
2018-09-27T10:33:23.205Z,18.84
2018-09-27T10:34:23.199Z,19.05
2018-09-27T10:35:23.184Z,19.25
2018-09-27T10:36:23.176Z,19.25
2018-09-27T10:37:23.176Z,19.39
2018-09-27T10:38:23.148Z,19.40
2018-09-27T10:39:23.148Z,19.42
2018-09-27T10:40:23.126Z,19.39
2018-09-27T10:41:23.119Z,19.35
2018-09-27T10:42:23.121Z,19.32
2018-09-27T10:43:23.101Z,19.27
2018-09-27T10:44:23.081Z,19.28
2018-09-27T10:45:23.387Z,19.20
2018-09-27T10:46:23.061Z,19.05
2018-09-27T10:47:23.061Z,19.09
2018-09-27T10:48:23.044Z,18.96
2018-09-27T10:49:23.026Z,18.94
2018-09-27T10:50:23.015Z,18.82
2018-09-27T10:51:23.103Z,18.79
2018-09-27T10:52:23.004Z,18.68
2018-09-27T10:53:22.983Z,18.64
2018-09-27T10:54:22.969Z,18.76
2018-09-27T10:55:22.961Z,18.79
2018-09-27T10:56:22.950Z,18.78
2018-09-27T10:57:22.957Z,18.79
2018-09-27T10:58:23.499Z,18.75
2018-09-27T10:59:22.920Z,18.89
2018-09-27T11:00:22.903Z,19.07
2018-09-27T11:01:22.891Z,18.96
2018-09-27T11:02:22.888Z,19.10
2018-09-27T11:03:22.877Z,19.01
2018-09-27T11:04:22.882Z,19.10
2018-09-27T11:05:23.014Z,19.10
2018-09-27T11:06:22.838Z,19.06
2018-09-27T11:07:22.871Z,19.13
2018-09-27T11:08:22.854Z,19.13
2018-09-27T11:09:22.804Z,19.20
2018-09-27T11:10:22.801Z,19.27
2018-09-27T11:11:22.840Z,19.28
2018-09-27T11:12:22.789Z,19.17
2018-09-27T11:13:22.895Z,19.32
2018-09-27T11:14:22.760Z,19.46
2018-09-27T11:15:22.762Z,19.58
2018-09-27T11:16:22.740Z,19.65
2018-09-27T11:17:22.722Z,19.83
2018-09-27T11:18:22.711Z,19.97
2018-09-27T11:19:22.770Z,20.10
2018-09-27T11:20:22.729Z,20.20
2018-09-27T11:21:22.653Z,20.20
2018-09-27T11:22:22.711Z,20.19
2018-09-27T11:23:22.663Z,20.27
2018-09-27T11:24:22.641Z,20.27
2018-09-27T11:25:22.627Z,20.27
2018-09-27T11:26:22.610Z,20.27
2018-09-27T11:27:22.680Z,20.17
2018-09-27T11:28:22.603Z,20.13
2018-09-27T11:29:22.588Z,20.02
2018-09-27T11:30:22.589Z,19.98
2018-09-27T11:31:22.639Z,19.89
2018-09-27T11:32:22.779Z,19.94
2018-09-27T11:33:22.528Z,19.86
2018-09-27T11:34:22.528Z,19.86
2018-09-27T11:35:22.523Z,19.78
2018-09-27T11:36:22.548Z,19.82
2018-09-27T11:37:22.517Z,19.68
2018-09-27T11:38:22.483Z,19.85
2018-09-27T11:39:22.480Z,20.12
2018-09-27T11:40:22.469Z,20.20
2018-09-27T11:41:22.454Z,20.19
2018-09-27T11:42:22.614Z,20.20
2018-09-27T11:43:22.414Z,20.22
2018-09-27T11:44:22.411Z,20.19
2018-09-27T11:45:22.396Z,20.15
2018-09-27T11:46:22.408Z,20.12
2018-09-27T11:47:22.410Z,20.19
2018-09-27T11:48:22.373Z,20.12
2018-09-27T11:49:22.436Z,20.16
2018-09-27T11:50:22.467Z,20.19
2018-09-27T11:51:22.340Z,20.16
2018-09-27T11:52:22.528Z,20.07
2018-09-27T11:53:22.310Z,20.00
2018-09-27T11:54:22.300Z,19.97
2018-09-27T11:55:22.299Z,19.89
2018-09-27T11:56:22.452Z,20.16
2018-09-27T11:57:22.286Z,20.25
2018-09-27T11:58:22.255Z,20.30
2018-09-27T11:59:22.244Z,20.33
2018-09-27T12:00:22.356Z,20.54
2018-09-27T12:01:22.257Z,20.76
2018-09-27T12:02:22.313Z,20.97
2018-09-27T12:03:22.202Z,21.08
2018-09-27T12:04:22.192Z,21.15
2018-09-27T12:05:22.196Z,21.26
2018-09-27T12:06:22.165Z,21.24
2018-09-27T12:07:22.254Z,21.19
2018-09-27T12:08:22.143Z,21.18
2018-09-27T12:09:22.132Z,21.09
2018-09-27T12:10:22.122Z,21.37
2018-09-27T12:11:22.115Z,21.52
2018-09-27T12:12:22.125Z,21.51
2018-09-27T12:13:22.169Z,21.58
2018-09-27T12:14:22.091Z,21.58
2018-09-27T12:15:22.099Z,21.48
2018-09-27T12:16:22.055Z,21.37
2018-09-27T12:17:22.064Z,21.18
2018-09-27T12:18:22.042Z,21.06
2018-09-27T12:19:22.017Z,20.96
2018-09-27T12:20:22.010Z,20.76
2018-09-27T12:21:22.014Z,20.61
2018-09-27T12:22:22.008Z,20.51
2018-09-27T12:23:21.971Z,20.37
2018-09-27T12:24:21.966Z,20.35
2018-09-27T12:25:21.968Z,20.22
2018-09-27T12:26:21.948Z,20.27
2018-09-27T12:27:21.972Z,20.63
2018-09-27T12:28:21.914Z,20.83
2018-09-27T12:29:22.047Z,20.90
2018-09-27T12:30:21.906Z,21.24
2018-09-27T12:31:21.934Z,21.49
2018-09-27T12:32:21.881Z,21.59
2018-09-27T12:33:21.889Z,21.75
2018-09-27T12:34:21.942Z,21.79
2018-09-27T12:35:21.847Z,21.94
2018-09-27T12:36:21.825Z,22.01
2018-09-27T12:37:21.814Z,22.04
2018-09-27T12:38:21.854Z,22.08
2018-09-27T12:39:21.789Z,22.20
2018-09-27T12:40:21.867Z,22.12
2018-09-27T12:41:21.775Z,22.08
2018-09-27T12:42:21.807Z,22.02
2018-09-27T12:43:21.776Z,21.79
2018-09-27T12:44:21.728Z,21.71
2018-09-27T12:45:21.754Z,21.86
2018-09-27T12:46:21.787Z,21.77
2018-09-27T12:47:21.699Z,22.05
2018-09-27T12:48:21.794Z,22.11
2018-09-27T12:49:21.673Z,21.98
2018-09-27T12:50:21.666Z,21.99
2018-09-27T12:51:21.835Z,21.93
2018-09-27T12:52:21.891Z,21.85
2018-09-27T12:53:21.679Z,21.79
2018-09-27T12:54:21.627Z,21.79
2018-09-27T12:55:21.616Z,21.81
2018-09-27T12:56:21.597Z,21.85
2018-09-27T12:57:21.588Z,21.83
2018-09-27T12:58:21.591Z,21.89
2018-09-27T12:59:21.569Z,21.83
2018-09-27T13:00:21.552Z,21.89
2018-09-27T13:01:21.537Z,21.94
2018-09-27T13:02:21.611Z,21.85
2018-09-27T13:03:21.543Z,21.81
2018-09-27T13:04:21.510Z,21.56
2018-09-27T13:05:21.527Z,21.46
2018-09-27T13:06:21.469Z,21.52
2018-09-27T13:07:21.481Z,21.43
2018-09-27T13:08:21.507Z,21.59
2018-09-27T13:09:21.983Z,21.71
2018-09-27T13:10:21.521Z,21.81
2018-09-27T13:11:21.424Z,21.55
2018-09-27T13:12:21.474Z,21.55
2018-09-27T13:13:21.578Z,21.49
2018-09-27T13:14:21.391Z,21.40
2018-09-27T13:15:21.386Z,21.58
2018-09-27T13:16:21.384Z,21.59
2018-09-27T13:17:21.496Z,21.74
2018-09-27T13:18:21.437Z,21.86
2018-09-27T13:19:21.638Z,21.94
2018-09-27T13:20:21.366Z,21.74
2018-09-27T13:21:21.647Z,21.71
2018-09-27T13:22:21.303Z,21.56
2018-09-27T13:23:21.310Z,21.38
2018-09-27T13:24:21.402Z,21.30
2018-09-27T13:25:21.270Z,21.33
2018-09-27T13:26:21.260Z,21.38
2018-09-27T13:27:21.260Z,21.18
2018-09-27T13:28:21.265Z,21.34
2018-09-27T13:29:21.382Z,21.34
2018-09-27T13:30:21.210Z,21.45
2018-09-27T13:31:21.326Z,21.42
2018-09-27T13:32:21.215Z,21.40
2018-09-27T13:33:21.196Z,21.33
2018-09-27T13:34:21.331Z,21.21
2018-09-27T13:35:21.158Z,21.03
2018-09-27T13:36:21.345Z,20.88
2018-09-27T13:37:21.139Z,20.75
2018-09-27T13:38:21.148Z,20.85
2018-09-27T13:39:21.166Z,20.94
2018-09-27T13:40:21.106Z,21.18
2018-09-27T13:41:21.095Z,21.38
2018-09-27T13:42:21.094Z,21.40
2018-09-27T13:43:21.160Z,21.22
2018-09-27T13:44:21.062Z,21.18
2018-09-27T13:45:21.312Z,20.96
2018-09-27T13:46:21.055Z,20.90
2018-09-27T13:47:21.027Z,20.79
2018-09-27T13:48:21.036Z,20.58
2018-09-27T13:49:21.013Z,20.50
2018-09-27T13:50:20.992Z,20.35
2018-09-27T13:51:21.216Z,20.25
2018-09-27T13:52:21.239Z,20.12
2018-09-27T13:53:21.417Z,19.98
2018-09-27T13:54:21.216Z,19.95
2018-09-27T13:55:20.937Z,19.82
2018-09-27T13:56:20.921Z,19.68
2018-09-27T13:57:20.950Z,19.64
2018-09-27T13:58:21.471Z,19.55
2018-09-27T13:59:21.279Z,19.52
2018-09-27T14:00:21.091Z,19.39
2018-09-27T14:01:20.854Z,19.35
2018-09-27T14:02:21.438Z,19.34
2018-09-27T14:03:20.864Z,19.16
2018-09-27T14:04:20.861Z,19.07
2018-09-27T14:05:20.878Z,19.05
2018-09-27T14:06:20.819Z,18.94
2018-09-27T14:07:20.843Z,18.91
2018-09-27T14:08:20.823Z,18.66
2018-09-27T14:09:20.784Z,18.51
2018-09-27T14:10:20.780Z,18.44
2018-09-27T14:11:20.749Z,18.29
2018-09-27T14:12:20.742Z,18.13
2018-09-27T14:13:20.847Z,17.99
2018-09-27T14:14:20.711Z,17.83
2018-09-27T14:15:20.708Z,17.71
2018-09-27T14:16:20.692Z,17.73
2018-09-27T14:17:20.718Z,17.68
2018-09-27T14:18:20.719Z,17.58
2018-09-27T14:19:20.668Z,17.47
2018-09-27T14:20:20.648Z,17.57
2018-09-27T14:21:20.631Z,17.55
2018-09-27T14:22:20.624Z,17.53
2018-09-27T14:23:20.736Z,17.51
2018-09-27T14:24:20.601Z,17.53
2018-09-27T14:25:20.576Z,17.43
2018-09-27T14:26:20.882Z,17.51
2018-09-27T14:27:20.588Z,17.43
2018-09-27T14:28:20.576Z,17.43
2018-09-27T14:29:20.549Z,17.40
2018-09-27T14:30:20.535Z,17.24
2018-09-27T14:31:20.507Z,17.32
2018-09-27T14:32:20.997Z,17.30
2018-09-27T14:33:20.524Z,17.35
2018-09-27T14:34:20.540Z,17.39
2018-09-27T14:35:20.608Z,17.43
2018-09-27T14:36:20.861Z,17.35
2018-09-27T14:37:20.455Z,17.36
2018-09-27T14:38:20.571Z,17.40
2018-09-27T14:39:20.746Z,17.45
2018-09-27T14:40:21.052Z,17.46
2018-09-27T14:41:20.552Z,17.38
2018-09-27T14:42:20.402Z,17.40
2018-09-27T14:43:20.600Z,17.39
2018-09-27T14:44:20.402Z,17.39
2018-09-27T14:45:20.851Z,17.32
2018-09-27T14:46:20.356Z,17.27
2018-09-27T14:47:20.865Z,17.14
2018-09-27T14:48:20.569Z,17.12
2018-09-27T14:49:20.383Z,17.10
2018-09-27T14:50:20.906Z,17.05
2018-09-27T14:51:20.482Z,16.95
2018-09-27T14:52:20.285Z,16.91
2018-09-27T14:53:20.270Z,16.84
2018-09-27T14:54:20.287Z,16.87
2018-09-27T14:55:20.247Z,16.95
2018-09-27T14:56:20.271Z,16.82
2018-09-27T14:57:20.224Z,16.90
2018-09-27T14:58:20.221Z,16.85
2018-09-27T14:59:20.419Z,16.73
2018-09-27T15:00:20.194Z,16.73
2018-09-27T15:01:20.180Z,16.75
2018-09-27T15:02:20.296Z,16.84
2018-09-27T15:03:20.166Z,16.82
2018-09-27T15:04:20.189Z,16.88
2018-09-27T15:05:20.142Z,16.88
2018-09-27T15:06:20.126Z,16.85
2018-09-27T15:07:20.116Z,16.66
2018-09-27T15:08:20.474Z,16.59
2018-09-27T15:09:20.181Z,16.59
2018-09-27T15:10:20.173Z,16.40
2018-09-27T15:11:20.071Z,16.41
2018-09-27T15:12:20.064Z,16.33
2018-09-27T15:13:20.151Z,16.32
2018-09-27T15:14:20.065Z,16.27
2018-09-27T15:15:20.029Z,16.32
2018-09-27T15:16:20.045Z,16.29
2018-09-27T15:17:20.005Z,16.30
2018-09-27T15:18:19.996Z,16.32
2018-09-27T15:19:20.005Z,16.17
2018-09-27T15:20:19.974Z,15.98
2018-09-27T15:21:19.959Z,15.93
2018-09-27T15:22:19.944Z,15.91
2018-09-27T15:23:19.981Z,15.77
2018-09-27T15:24:19.983Z,15.71
2018-09-27T15:25:19.911Z,15.66
2018-09-27T15:26:19.911Z,15.67
2018-09-27T15:27:19.894Z,15.62
2018-09-27T15:28:19.885Z,15.59
2018-09-27T15:29:19.910Z,15.53
2018-09-27T15:30:19.861Z,15.40
2018-09-27T15:31:19.860Z,15.44
2018-09-27T15:32:19.841Z,15.49
2018-09-27T15:33:19.821Z,15.46
2018-09-27T15:34:19.837Z,15.41
2018-09-27T15:35:19.810Z,15.43
2018-09-27T15:36:19.838Z,15.30
2018-09-27T15:37:19.792Z,15.28
2018-09-27T15:38:19.764Z,15.27
2018-09-27T15:39:19.778Z,15.22
2018-09-27T15:40:19.751Z,15.25
2018-09-27T15:41:19.743Z,15.15
2018-09-27T15:42:19.758Z,15.22
2018-09-27T15:43:19.714Z,15.22
2018-09-27T15:44:19.722Z,15.18
2018-09-27T15:45:19.695Z,15.05
2018-09-27T15:46:19.679Z,15.03
2018-09-27T15:47:19.673Z,14.95
2018-09-27T15:48:19.853Z,14.94
2018-09-27T15:49:19.914Z,15.00
2018-09-27T15:50:19.631Z,14.91
2018-09-27T15:51:19.651Z,14.83
2018-09-27T15:52:19.609Z,14.78
2018-09-27T15:53:19.597Z,14.82
2018-09-27T15:54:19.597Z,14.72
2018-09-27T15:55:19.574Z,14.67
2018-09-27T15:56:19.756Z,14.69
2018-09-27T15:57:19.552Z,14.72
2018-09-27T15:58:19.540Z,14.72
2018-09-27T15:59:19.544Z,14.74
2018-09-27T16:00:19.548Z,14.74
2018-09-27T16:01:19.506Z,14.64
2018-09-27T16:02:19.503Z,14.69
2018-09-27T16:03:19.484Z,14.64
2018-09-27T16:04:19.484Z,14.66
2018-09-27T16:05:19.462Z,14.64
2018-09-27T16:06:19.472Z,14.53
2018-09-27T16:07:19.439Z,14.53
2018-09-27T16:08:19.427Z,14.49
2018-09-27T16:09:19.436Z,14.41
2018-09-27T16:10:19.405Z,14.45
2018-09-27T16:11:19.394Z,14.31
2018-09-27T16:12:19.455Z,14.26
2018-09-27T16:13:19.370Z,14.27
2018-09-27T16:14:19.372Z,14.31
2018-09-27T16:15:19.349Z,14.26
2018-09-27T16:16:19.337Z,14.26
2018-09-27T16:17:19.326Z,14.19
2018-09-27T16:18:19.315Z,14.20
2018-09-27T16:19:19.315Z,14.16
2018-09-27T16:20:19.289Z,14.02
2018-09-27T16:21:19.267Z,14.06
2018-09-27T16:22:19.291Z,13.94
2018-09-27T16:23:19.258Z,14.04
2018-09-27T16:24:19.254Z,14.02
2018-09-27T16:25:19.231Z,13.94
2018-09-27T16:26:19.215Z,13.99
2018-09-27T16:27:19.299Z,14.01
2018-09-27T16:28:19.201Z,13.90
2018-09-27T16:29:19.202Z,14.01
2018-09-27T16:30:19.174Z,13.93
2018-09-27T16:31:19.166Z,13.83
2018-09-27T16:32:19.398Z,13.81
2018-09-27T16:33:19.188Z,13.81